Time,TemperatureF,DewpointF,PressureIn,WindDirection,WindDirectionDegrees,WindSpeedMPH,WindSpeedGustMPH,Humidity,HourlyPrecipIn,Conditions,Clouds,dailyrainin,SoftwareType,DateUTC
2013-08-05 00:19:00,54.3,37.6,22.63,North,11,0.0,0.0,53,0.00,,---,0.00,VWS V14.01,2013-08-05 07:19:00,
2013-08-05 00:39:00,54.5,36.3,22.63,North,11,0.0,0.0,50,0.00,,---,0.00,VWS V14.01,2013-08-05 07:39:00,
2013-08-05 00:59:00,53.4,35.8,22.63,North,11,0.0,0.0,51,0.00,,---,0.00,VWS V14.01,2013-08-05 07:59:00,
2013-08-05 01:19:00,52.3,34.8,22.63,North,11,0.0,0.0,51,0.00,,---,0.00,VWS V14.01,2013-08-05 08:19:00,
2013-08-05 01:59:00,50.7,34.7,22.63,North,11,0.0,0.0,54,0.00,,---,0.00,VWS V14.01,2013-08-05 08:59:00,
2013-08-05 02:19:00,50.4,34.4,22.63,North,11,0.0,0.0,54,0.00,,---,0.00,VWS V14.01,2013-08-05 09:19:00,
2013-08-05 02:59:00,51.3,32.8,22.63,North,11,0.0,0.0,49,0.00,,---,0.00,VWS V14.01,2013-08-05 09:59:00,
2013-08-05 03:19:00,50.7,32.3,22.63,North,11,0.0,0.0,49,0.00,,---,0.00,VWS V14.01,2013-08-05 10:19:00,
2013-08-05 03:39:00,50.4,31.9,22.63,North,11,0.0,0.0,49,0.00,,---,0.00,VWS V14.01,2013-08-05 10:39:00,
2013-08-05 04:19:00,48.6,30.3,22.63,North,8,0.0,0.0,49,0.00,,---,0.00,VWS V14.01,2013-08-05 11:19:00,
2013-08-05 04:39:00,48.4,30.1,22.63,North,8,0.0,0.0,49,0.00,,---,0.00,VWS V14.01,2013-08-05 11:39:00,
2013-08-05 04:59:00,47.8,29.6,22.63,North,8,0.0,0.0,49,0.00,,---,0.00,VWS V14.01,2013-08-05 11:59:00,
2013-08-05 05:19:00,47.8,29.6,22.63,North,8,0.0,0.0,49,0.00,,---,0.00,VWS V14.01,2013-08-05 12:19:00,
2013-08-05 05:59:00,48.7,30.5,22.63,North,10,0.0,0.0,49,0.00,,---,0.00,VWS V14.01,2013-08-05 12:59:00,
2013-08-05 06:19:00,48.9,29.1,22.63,North,10,0.0,0.0,46,0.00,,---,0.00,VWS V14.01,2013-08-05 13:19:00,
2013-08-05 06:39:00,51.3,31.2,22.63,North,10,0.0,0.0,46,0.00,,---,0.00,VWS V14.01,2013-08-05 13:39:00,
2013-08-05 07:19:00,58.5,36.7,22.63,North,10,0.0,3.1,44,0.00,,---,0.00,VWS V14.01,2013-08-05 14:19:00,
2013-08-05 07:39:00,61.3,40.4,22.63,NNE,12,0.0,3.1,46,0.00,,---,0.00,VWS V14.01,2013-08-05 14:39:00,
2013-08-05 07:59:00,60.3,40.0,22.63,NNE,12,0.0,0.0,47,0.00,,---,0.00,VWS V14.01,2013-08-05 14:59:00,
2013-08-05 08:20:00,65.5,45.3,22.63,North,0,0.0,3.1,48,0.00,,---,0.00,VWS V14.01,2013-08-05 15:20:00,
2013-08-05 08:39:00,70.3,44.2,22.63,North,3,3.1,4.0,39,0.00,,---,0.00,VWS V14.01,2013-08-05 15:39:00,
2013-08-05 08:59:00,74.1,46.9,22.63,SSW,205,0.0,4.9,38,0.00,,---,0.00,VWS V14.01,2013-08-05 15:59:00,
2013-08-05 09:19:00,77.4,49.8,22.63,WSW,247,4.0,6.3,38,0.00,,---,0.00,VWS V14.01,2013-08-05 16:19:00,
2013-08-05 09:59:00,80.4,51.8,22.63,SW,227,5.8,5.8,37,0.00,,---,0.00,VWS V14.01,2013-08-05 16:59:00,
2013-08-05 10:19:00,83.1,53.4,22.63,SSW,206,4.9,8.3,36,0.00,,---,0.00,VWS V14.01,2013-08-05 17:19:00,
2013-08-05 11:00:00,85.8,55.8,22.63,SSW,199,3.6,5.8,36,0.00,,---,0.00,VWS V14.01,2013-08-05 18:00:00,
2013-08-05 11:20:00,85.1,55.2,22.63,SSW,213,3.6,8.3,36,0.00,,---,0.00,VWS V14.01,2013-08-05 18:20:00,
2013-08-05 11:40:00,87.1,56.9,22.63,SW,218,3.1,7.6,36,0.00,,---,0.00,VWS V14.01,2013-08-05 18:40:00,
2013-08-05 12:00:00,87.3,57.1,22.63,SSW,212,3.1,7.6,36,0.00,,---,0.00,VWS V14.01,2013-08-05 19:00:00,
2013-08-05 12:20:00,88.5,57.4,22.63,SW,222,3.6,8.1,35,0.00,,---,0.00,VWS V14.01,2013-08-05 19:20:00,
2013-08-05 12:40:00,88.7,57.6,22.63,SW,215,8.1,8.3,35,0.00,,---,0.00,VWS V14.01,2013-08-05 19:40:00,
2013-08-05 13:00:00,90.5,59.1,22.63,WSW,258,10.1,10.1,35,0.00,,---,0.00,VWS V14.01,2013-08-05 20:00:00,
2013-08-05 13:20:00,94.5,61.8,22.63,SE,129,4.0,11.0,34,0.00,,---,0.00,VWS V14.01,2013-08-05 20:20:00,
2013-08-05 14:40:00,90.7,59.3,22.63,WSW,238,5.4,14.1,35,0.00,,---,0.00,VWS V14.01,2013-08-05 21:40:00,
2013-08-05 15:20:00,89.6,58.3,22.63,South,184,5.4,13.2,35,0.00,,---,0.00,VWS V14.01,2013-08-05 22:20:00,
2013-08-05 15:40:00,93.0,60.5,22.63,South,185,4.5,11.9,34,0.00,,---,0.00,VWS V14.01,2013-08-05 22:40:00,
2013-08-05 16:00:00,90.5,59.1,22.63,SSE,163,8.3,11.0,35,0.00,,---,0.00,VWS V14.01,2013-08-05 23:00:00,
2013-08-05 16:20:00,89.8,58.5,22.63,SSW,193,10.5,10.5,35,0.00,,---,0.00,VWS V14.01,2013-08-05 23:20:00,
2013-08-05 16:40:00,88.7,57.6,22.63,SSW,208,4.9,10.5,35,0.00,,---,0.00,VWS V14.01,2013-08-05 23:40:00,
2013-08-05 17:00:00,89.2,58.0,22.63,South,191,4.5,12.3,35,0.00,,---,0.00,VWS V14.01,2013-08-06 00:00:00,
2013-08-05 17:20:00,89.6,58.3,22.63,WSW,238,6.7,10.1,35,0.00,,---,0.00,VWS V14.01,2013-08-06 00:20:00,
2013-08-05 17:40:00,81.0,52.3,22.63,WSW,257,4.0,10.1,37,0.00,,---,0.00,VWS V14.01,2013-08-06 00:40:00,
2013-08-05 18:00:00,78.6,50.9,22.63,SSW,202,5.8,10.1,38,0.00,,---,0.00,VWS V14.01,2013-08-06 01:00:00,
2013-08-05 18:20:00,77.2,49.6,22.63,WSW,239,7.6,10.1,38,0.00,,---,0.00,VWS V14.01,2013-08-06 01:20:00,
2013-08-05 18:40:00,75.2,47.9,22.63,SSW,200,2.7,8.7,38,0.00,,---,0.00,VWS V14.01,2013-08-06 01:40:00,
2013-08-05 19:20:00,71.2,45.0,22.63,SSW,203,3.6,7.6,39,0.00,,---,0.00,VWS V14.01,2013-08-06 02:20:00,
2013-08-05 19:40:00,68.5,43.3,22.63,SW,222,3.6,5.8,40,0.00,,---,0.00,VWS V14.01,2013-08-06 02:40:00,
2013-08-05 20:00:00,65.8,40.9,22.63,North,4,0.0,3.6,40,0.00,,---,0.00,VWS V14.01,2013-08-06 03:00:00,
2013-08-05 20:20:00,63.1,39.1,22.63,North,4,0.0,0.0,41,0.00,,---,0.00,VWS V14.01,2013-08-06 03:20:00,
2013-08-05 20:40:00,62.4,38.4,22.63,NNW,340,2.2,3.1,41,0.00,,---,0.00,VWS V14.01,2013-08-06 03:40:00,
2013-08-05 21:00:00,61.7,37.8,22.63,North,5,0.0,3.1,41,0.00,,---,0.00,VWS V14.01,2013-08-06 04:00:00,
2013-08-05 21:20:00,60.8,38.8,22.63,North,5,0.0,2.7,44,0.00,,---,0.00,VWS V14.01,2013-08-06 04:20:00,
2013-08-05 21:40:00,59.2,37.3,22.63,North,5,0.0,0.0,44,0.00,,---,0.00,VWS V14.01,2013-08-06 04:40:00,
2013-08-05 22:00:00,57.9,37.8,22.63,North,5,0.0,0.0,47,0.00,,---,0.00,VWS V14.01,2013-08-06 05:00:00,
2013-08-05 22:20:00,56.7,36.7,22.63,North,5,0.0,0.0,47,0.00,,---,0.00,VWS V14.01,2013-08-06 05:20:00,
2013-08-05 22:40:00,55.9,36.0,22.63,North,5,0.0,0.0,47,0.00,,---,0.00,VWS V14.01,2013-08-06 05:40:00,
2013-08-05 23:00:00,55.2,35.9,22.63,North,5,0.0,0.0,48,0.00,,---,0.00,VWS V14.01,2013-08-06 06:00:00,
2013-08-05 23:20:00,54.3,35.1,22.63,North,5,0.0,0.0,48,0.00,,---,0.00,VWS V14.01,2013-08-06 06:20:00,
2013-08-05 23:40:00,55.6,35.7,22.63,North,5,0.0,0.0,47,0.00,,---,0.00,VWS V14.01,2013-08-06 06:40:00,